createdAt,value
2017-10-28T00:00:15.381Z,16.52
2017-10-28T00:02:44.280Z,12.93
2017-10-28T00:05:13.300Z,14.80
2017-10-28T00:07:42.179Z,13.25
2017-10-28T00:10:10.473Z,11.25
2017-10-28T00:12:38.616Z,14.70
2017-10-28T00:15:08.988Z,12.73
2017-10-28T00:17:37.310Z,12.55
2017-10-28T00:20:06.681Z,11.85
2017-10-28T00:22:36.074Z,17.58
2017-10-28T00:25:04.345Z,14.95
2017-10-28T00:27:33.357Z,10.93
2017-10-28T00:30:07.139Z,11.32
2017-10-28T00:32:41.092Z,11.10
2017-10-28T00:35:17.387Z,14.38
2017-10-28T00:37:45.508Z,13.47
2017-10-28T00:40:13.633Z,16.52
2017-10-28T00:42:41.775Z,12.13
2017-10-28T00:45:10.065Z,17.20
2017-10-28T00:47:38.226Z,10.73
2017-10-28T00:50:07.139Z,14.75
2017-10-28T00:52:36.010Z,15.73
2017-10-28T00:55:04.136Z,11.82
2017-10-28T00:57:32.312Z,13.30
2017-10-28T01:00:01.231Z,15.02
2017-10-28T01:02:30.190Z,16.67
2017-10-28T01:04:58.336Z,16.62
2017-10-28T01:07:26.452Z,13.00
2017-10-28T01:09:54.575Z,14.68
2017-10-28T01:12:22.686Z,14.40
2017-10-28T01:14:50.932Z,14.57
2017-10-28T01:17:19.095Z,18.23
2017-10-28T01:19:47.207Z,18.95
2017-10-28T01:22:15.337Z,15.60
2017-10-28T01:24:43.522Z,16.20
2017-10-28T01:27:11.645Z,14.05
2017-10-28T01:29:39.765Z,14.98
2017-10-28T01:32:07.889Z,16.42
2017-10-28T01:34:36.758Z,11.93
2017-10-28T01:37:04.890Z,15.13
2017-10-28T01:39:33.033Z,15.30
2017-10-28T01:42:01.916Z,13.82
2017-10-28T01:44:30.839Z,15.80
2017-10-28T01:46:58.942Z,13.50
2017-10-28T01:49:27.101Z,17.27
2017-10-28T01:51:55.221Z,15.93
2017-10-28T01:54:24.117Z,21.50
2017-10-28T01:56:53.010Z,14.57
2017-10-28T01:59:21.903Z,14.73
2017-10-28T02:01:50.784Z,13.73
2017-10-28T02:04:19.675Z,16.83
2017-10-28T02:06:48.568Z,13.48
2017-10-28T02:09:17.477Z,15.33
2017-10-28T02:11:45.598Z,14.50
2017-10-28T02:14:13.705Z,14.82
2017-10-28T02:16:42.595Z,16.00
2017-10-28T02:19:11.483Z,16.17
2017-10-28T02:21:40.383Z,13.60
2017-10-28T02:24:08.530Z,15.37
2017-10-28T02:26:37.435Z,16.15
2017-10-28T02:29:06.323Z,15.30
2017-10-28T02:31:35.239Z,13.32
2017-10-28T02:34:04.112Z,15.57
2017-10-28T02:36:33.010Z,15.60
2017-10-28T02:39:01.164Z,16.83
2017-10-28T02:41:29.271Z,14.70
2017-10-28T02:43:57.389Z,17.30
2017-10-28T02:46:25.509Z,16.35
2017-10-28T02:48:53.680Z,16.95
2017-10-28T02:51:22.546Z,19.20
2017-10-28T02:53:51.440Z,14.63
2017-10-28T02:56:19.578Z,17.10
2017-10-28T02:58:47.703Z,17.27
2017-10-28T03:01:15.832Z,17.10
2017-10-28T03:03:43.950Z,15.07
2017-10-28T03:06:12.082Z,13.93
2017-10-28T03:08:40.192Z,19.77
2017-10-28T03:11:08.320Z,17.62
2017-10-28T03:13:36.464Z,15.80
2017-10-28T03:16:04.594Z,17.42
2017-10-28T03:18:32.783Z,15.60
2017-10-28T03:21:00.898Z,15.93
2017-10-28T03:23:29.020Z,14.90
2017-10-28T03:25:57.200Z,14.23
2017-10-28T03:28:25.371Z,18.45
2017-10-28T03:30:53.504Z,17.23
2017-10-28T03:33:21.687Z,18.83
2017-10-28T03:35:49.798Z,17.42
2017-10-28T03:38:17.920Z,16.90
2017-10-28T03:40:46.813Z,17.33
2017-10-28T03:43:15.022Z,15.55
2017-10-28T03:45:43.192Z,19.40
2017-10-28T03:48:11.376Z,15.90
2017-10-28T03:50:39.475Z,16.80
2017-10-28T03:53:07.614Z,16.77
2017-10-28T03:55:35.750Z,18.90
2017-10-28T03:58:04.676Z,22.15
2017-10-28T04:00:32.789Z,19.10
2017-10-28T04:03:00.921Z,13.95
2017-10-28T04:05:29.042Z,17.10
2017-10-28T04:07:57.179Z,16.07
2017-10-28T04:10:25.309Z,14.95
2017-10-28T04:12:54.204Z,19.27
2017-10-28T04:15:23.103Z,18.42
2017-10-28T04:17:51.210Z,17.30
2017-10-28T04:20:19.362Z,16.77
2017-10-28T04:22:47.456Z,15.53
2017-10-28T04:25:15.590Z,21.30
2017-10-28T04:27:43.721Z,20.23
2017-10-28T04:30:11.847Z,16.23
2017-10-28T04:32:40.021Z,18.42
2017-10-28T04:35:08.195Z,15.70
2017-10-28T04:37:36.305Z,16.02
2017-10-28T04:40:04.423Z,20.75
2017-10-28T04:42:32.547Z,18.58
2017-10-28T04:45:00.671Z,17.17
2017-10-28T04:47:28.795Z,19.00
2017-10-28T04:49:57.032Z,16.60
2017-10-28T04:52:25.151Z,16.30
2017-10-28T04:54:53.281Z,19.87
2017-10-28T04:57:21.448Z,17.02
2017-10-28T04:59:49.566Z,16.30
2017-10-28T05:02:17.692Z,19.93
2017-10-28T05:04:45.837Z,16.98
2017-10-28T05:07:14.750Z,19.67
2017-10-28T05:09:42.919Z,17.60
2017-10-28T05:12:11.025Z,15.88
2017-10-28T05:14:39.214Z,18.48
2017-10-28T05:17:07.356Z,20.35
2017-10-28T05:19:35.515Z,18.27
2017-10-28T05:22:03.645Z,19.20
2017-10-28T05:24:31.788Z,16.23
2017-10-28T05:27:00.696Z,16.50
2017-10-28T05:29:28.835Z,18.87
2017-10-28T05:31:56.965Z,22.20
2017-10-28T05:34:25.864Z,19.98
2017-10-28T05:36:53.996Z,23.40
2017-10-28T05:39:22.128Z,21.33
2017-10-28T05:41:50.254Z,18.98
2017-10-28T05:44:18.472Z,22.87
2017-10-28T05:46:46.582Z,20.35
2017-10-28T05:49:14.715Z,17.25
2017-10-28T05:51:42.846Z,16.58
2017-10-28T05:54:10.995Z,17.50
2017-10-28T05:56:39.122Z,17.17
2017-10-28T05:59:08.160Z,22.17
2017-10-28T06:01:36.886Z,20.30
2017-10-28T06:04:05.786Z,19.12
2017-10-28T06:06:34.673Z,15.93
2017-10-28T06:09:02.837Z,18.13
2017-10-28T06:11:31.756Z,20.15
2017-10-28T06:13:59.870Z,17.50
2017-10-28T06:16:27.999Z,19.83
2017-10-28T06:18:56.177Z,16.98
2017-10-28T06:21:24.289Z,16.63
2017-10-28T06:23:52.520Z,19.97
2017-10-28T06:26:20.668Z,19.42
2017-10-28T06:28:49.687Z,15.05
2017-10-28T06:31:18.661Z,18.90
2017-10-28T06:33:46.851Z,19.08
2017-10-28T06:36:14.975Z,24.43
2017-10-28T06:38:43.096Z,17.90
2017-10-28T06:41:11.270Z,19.65
2017-10-28T06:43:39.442Z,22.98
2017-10-28T06:46:07.592Z,16.85
2017-10-28T06:48:36.492Z,17.15
2017-10-28T06:51:04.660Z,22.60
2017-10-28T06:53:32.850Z,15.57
2017-10-28T06:56:01.031Z,17.83
2017-10-28T06:58:29.202Z,16.83
2017-10-28T07:01:04.103Z,17.23
2017-10-28T07:03:35.781Z,16.37
2017-10-28T07:06:12.620Z,16.33
2017-10-28T07:08:41.879Z,15.10
2017-10-28T07:11:10.002Z,18.23
2017-10-28T07:13:38.911Z,14.98
2017-10-28T07:16:07.100Z,12.25
2017-10-28T07:18:35.202Z,16.58
2017-10-28T07:21:03.344Z,12.53
2017-10-28T07:23:31.500Z,16.53
2017-10-28T07:25:59.628Z,14.60
2017-10-28T07:28:27.783Z,15.13
2017-10-28T07:30:55.942Z,15.50
2017-10-28T07:33:24.105Z,15.27
2017-10-28T07:35:52.979Z,16.77
2017-10-28T07:38:22.005Z,14.63
2017-10-28T07:40:50.094Z,16.60
2017-10-28T07:43:18.256Z,12.20
2017-10-28T07:45:46.381Z,16.17
2017-10-28T07:48:14.529Z,13.15
2017-10-28T07:50:42.680Z,13.30
2017-10-28T07:53:10.791Z,15.00
2017-10-28T07:55:39.129Z,15.35
2017-10-28T07:58:07.299Z,12.88
2017-10-28T08:00:36.173Z,14.40
2017-10-28T08:03:04.367Z,14.00
2017-10-28T08:05:33.365Z,13.20
2017-10-28T08:08:01.479Z,16.85
2017-10-28T08:10:29.625Z,16.80
2017-10-28T08:12:57.744Z,13.73
2017-10-28T08:15:26.672Z,13.73
2017-10-28T08:17:54.805Z,15.05
2017-10-28T08:20:22.912Z,14.35
2017-10-28T08:22:51.073Z,17.13
2017-10-28T08:25:19.260Z,13.62
2017-10-28T08:27:47.432Z,13.07
2017-10-28T08:30:15.544Z,12.60
2017-10-28T08:32:43.680Z,16.52
2017-10-28T08:35:11.807Z,11.55
2017-10-28T08:37:39.946Z,12.15
2017-10-28T08:40:08.094Z,15.45
2017-10-28T08:42:36.209Z,14.65
2017-10-28T08:45:04.437Z,13.10
2017-10-28T08:47:33.328Z,17.50
2017-10-28T08:50:01.476Z,13.40
2017-10-28T08:52:29.580Z,11.80
2017-10-28T08:54:57.712Z,12.73
2017-10-28T08:57:26.613Z,10.75
2017-10-28T08:59:55.532Z,14.00
2017-10-28T09:02:23.637Z,12.37
2017-10-28T09:04:51.873Z,11.98
2017-10-28T09:07:20.747Z,14.40
2017-10-28T09:09:48.883Z,15.15
2017-10-28T09:12:17.122Z,12.63
2017-10-28T09:14:45.225Z,11.98
2017-10-28T09:17:13.338Z,14.27
2017-10-28T09:19:42.251Z,13.27
2017-10-28T09:22:11.143Z,16.40
2017-10-28T09:24:39.277Z,11.20
2017-10-28T09:27:08.210Z,16.02
2017-10-28T09:29:36.310Z,13.88
2017-10-28T09:32:04.460Z,13.97
2017-10-28T09:34:32.677Z,12.20
2017-10-28T09:37:01.593Z,13.13
2017-10-28T09:39:30.484Z,11.07
2017-10-28T09:41:59.496Z,13.25
2017-10-28T09:44:28.697Z,12.68
2017-10-28T09:46:57.558Z,14.52
2017-10-28T09:49:26.477Z,10.98
2017-10-28T09:51:54.604Z,14.37
2017-10-28T09:54:22.827Z,10.65
2017-10-28T09:56:51.002Z,12.15
2017-10-28T09:59:19.113Z,12.35
2017-10-28T10:01:47.252Z,14.10
2017-10-28T10:04:15.419Z,9.20
2017-10-28T10:06:43.568Z,10.20
2017-10-28T10:09:11.695Z,9.82
2017-10-28T10:11:39.819Z,9.88
2017-10-28T10:14:08.696Z,10.15
2017-10-28T10:16:37.610Z,10.73
2017-10-28T10:19:06.480Z,8.77
2017-10-28T10:21:35.392Z,10.50
2017-10-28T10:24:03.531Z,10.17
2017-10-28T10:26:32.435Z,9.02
2017-10-28T10:29:00.629Z,9.30
2017-10-28T10:31:29.111Z,9.43
2017-10-28T10:33:57.235Z,10.30
2017-10-28T10:36:25.454Z,8.27
2017-10-28T10:38:54.324Z,8.30
2017-10-28T10:41:22.492Z,11.77
2017-10-28T10:43:51.407Z,7.50
2017-10-28T10:46:19.581Z,8.00
2017-10-28T10:48:47.737Z,6.70
2017-10-28T10:51:16.611Z,8.93
2017-10-28T10:53:45.508Z,8.10
2017-10-28T10:56:14.426Z,8.07
2017-10-28T10:58:42.603Z,6.20
2017-10-28T11:01:10.708Z,8.80
2017-10-28T11:03:38.858Z,9.82
2017-10-28T11:06:06.998Z,8.77
2017-10-28T11:08:35.156Z,8.00
2017-10-28T11:11:04.075Z,7.75
2017-10-28T11:13:32.934Z,8.02
2017-10-28T11:16:01.856Z,6.35
2017-10-28T11:18:29.967Z,9.45
2017-10-28T11:20:58.101Z,5.83
2017-10-28T11:23:26.256Z,5.83
2017-10-28T11:25:54.446Z,7.78
2017-10-28T11:28:22.575Z,6.20
2017-10-28T11:30:50.689Z,6.53
2017-10-28T11:33:18.867Z,9.60
2017-10-28T11:35:46.968Z,7.07
2017-10-28T11:38:15.096Z,8.47
2017-10-28T11:40:43.223Z,9.00
2017-10-28T11:43:11.356Z,7.65
2017-10-28T11:45:39.491Z,6.80
2017-10-28T11:48:08.395Z,8.25
2017-10-28T11:50:36.600Z,6.55
2017-10-28T11:53:04.740Z,6.93
2017-10-28T11:58:07.451Z,11.57
2017-10-28T12:00:36.333Z,6.23
2017-10-28T12:03:04.486Z,9.63
2017-10-28T12:05:33.396Z,7.50
2017-10-28T12:08:01.577Z,8.73
2017-10-28T12:10:29.702Z,9.45
2017-10-28T12:12:57.810Z,7.50
2017-10-28T12:15:25.996Z,7.43
2017-10-28T12:17:54.150Z,8.93
2017-10-28T12:20:23.052Z,6.55
2017-10-28T12:22:51.188Z,8.10
2017-10-28T12:25:20.091Z,6.95
2017-10-28T12:27:48.985Z,8.13
2017-10-28T12:30:18.430Z,5.62
2017-10-28T12:32:53.365Z,6.12
2017-10-28T12:35:21.514Z,7.05
2017-10-28T12:37:50.405Z,4.55
2017-10-28T12:40:18.579Z,6.87
2017-10-28T12:42:46.687Z,5.20
2017-10-28T12:45:14.817Z,5.17
2017-10-28T12:47:42.945Z,7.57
2017-10-28T12:50:11.071Z,6.12
2017-10-28T12:52:39.236Z,8.57
2017-10-28T12:55:07.365Z,9.40
2017-10-28T12:57:35.583Z,5.50
2017-10-28T13:00:04.056Z,6.82
2017-10-28T13:02:32.921Z,5.43
2017-10-28T13:05:01.827Z,7.03
2017-10-28T13:07:30.120Z,5.23
2017-10-28T13:09:58.290Z,5.97
2017-10-28T13:12:27.169Z,7.57
2017-10-28T13:14:56.055Z,6.17
2017-10-28T13:17:24.245Z,6.53
2017-10-28T13:19:52.352Z,7.65
2017-10-28T13:22:20.491Z,7.67
2017-10-28T13:24:48.610Z,4.57
2017-10-28T13:27:16.740Z,8.68
2017-10-28T13:29:44.892Z,3.13
2017-10-28T13:32:13.078Z,7.95
2017-10-28T13:34:41.196Z,5.22
2017-10-28T13:37:09.286Z,6.90
2017-10-28T13:39:38.208Z,6.32
2017-10-28T13:42:06.396Z,4.70
2017-10-28T13:44:34.492Z,5.68
2017-10-28T13:47:02.728Z,6.00
2017-10-28T13:49:31.620Z,5.25
2017-10-28T13:52:00.502Z,8.03
2017-10-28T13:54:28.685Z,5.57
2017-10-28T13:56:56.813Z,4.70
2017-10-28T13:59:24.950Z,12.73
2017-10-28T14:01:53.105Z,8.03
2017-10-28T14:04:21.249Z,4.95
2017-10-28T14:06:50.154Z,6.37
2017-10-28T14:09:18.291Z,7.40
2017-10-28T14:11:46.418Z,5.15
2017-10-28T14:14:14.553Z,6.32
2017-10-28T14:16:43.583Z,5.20
2017-10-28T14:19:11.761Z,6.97
2017-10-28T14:21:39.872Z,9.10
2017-10-28T14:24:08.205Z,5.60
2017-10-28T14:26:36.341Z,7.45
2017-10-28T14:29:05.255Z,7.10
2017-10-28T14:31:33.383Z,10.00
2017-10-28T14:34:01.548Z,7.10
2017-10-28T14:36:29.675Z,7.67
2017-10-28T14:38:57.808Z,6.47
2017-10-28T14:41:26.735Z,8.32
2017-10-28T14:43:54.869Z,6.18
2017-10-28T14:46:22.999Z,5.50
2017-10-28T14:48:51.148Z,5.60
2017-10-28T14:51:19.276Z,6.40
2017-10-28T14:53:47.505Z,7.85
2017-10-28T14:56:15.638Z,5.35
2017-10-28T14:58:44.560Z,6.90
2017-10-28T15:01:12.750Z,7.43
2017-10-28T15:03:40.909Z,7.03
2017-10-28T15:06:09.028Z,6.15
2017-10-28T15:08:37.255Z,6.53
2017-10-28T15:11:05.382Z,7.22
2017-10-28T15:13:33.509Z,5.32
2017-10-28T15:16:01.644Z,6.93
2017-10-28T15:18:30.545Z,7.10
2017-10-28T15:20:59.457Z,6.13
2017-10-28T15:23:27.622Z,10.93
2017-10-28T15:25:55.794Z,6.55
2017-10-28T15:28:24.697Z,10.65
2017-10-28T15:30:52.798Z,7.03
2017-10-28T15:33:21.089Z,9.52
2017-10-28T15:35:49.223Z,6.83
2017-10-28T15:38:17.346Z,8.55
2017-10-28T15:40:46.265Z,5.70
2017-10-28T15:43:14.399Z,8.43
2017-10-28T15:45:42.550Z,7.30
2017-10-28T15:48:10.695Z,6.95
2017-10-28T15:50:38.828Z,5.23
2017-10-28T15:53:07.743Z,8.50
2017-10-28T15:55:35.857Z,5.62
2017-10-28T15:58:03.999Z,5.68
2017-10-28T16:00:32.148Z,5.73
2017-10-28T16:03:00.289Z,7.00
2017-10-28T16:05:28.418Z,7.50
2017-10-28T16:07:56.579Z,9.93
2017-10-28T16:10:24.691Z,5.65
2017-10-28T16:12:52.872Z,8.18
2017-10-28T16:15:21.009Z,9.40
2017-10-28T16:17:49.156Z,6.90
2017-10-28T16:20:17.288Z,7.97
2017-10-28T16:22:45.425Z,7.70
2017-10-28T16:25:13.591Z,8.43
2017-10-28T16:27:41.710Z,6.22
2017-10-28T16:30:09.824Z,7.57
2017-10-28T16:32:38.004Z,8.82
2017-10-28T16:35:06.112Z,7.43
2017-10-28T16:37:34.249Z,6.50
2017-10-28T16:40:03.138Z,8.07
2017-10-28T16:42:31.276Z,6.82
2017-10-28T16:45:00.475Z,6.50
2017-10-28T16:47:29.360Z,6.45
2017-10-28T16:49:58.262Z,5.68
2017-10-28T16:52:26.424Z,11.83
2017-10-28T16:54:55.350Z,6.68
2017-10-28T16:57:24.550Z,10.07
2017-10-28T16:59:52.655Z,6.33
2017-10-28T17:02:20.793Z,6.70
2017-10-28T17:04:48.925Z,8.07
2017-10-28T17:07:17.885Z,10.00
2017-10-28T17:09:46.027Z,7.18
2017-10-28T17:12:14.303Z,11.10
2017-10-28T17:14:43.161Z,7.27
2017-10-28T17:17:12.089Z,9.77
2017-10-28T17:19:40.226Z,6.35
2017-10-28T17:22:08.433Z,7.43
2017-10-28T17:24:36.560Z,7.78
2017-10-28T17:27:04.687Z,8.57
2017-10-28T17:29:32.944Z,7.20
2017-10-28T17:32:01.941Z,6.12
2017-10-28T17:34:30.112Z,6.57
2017-10-28T17:36:58.285Z,7.00
2017-10-28T17:39:26.479Z,6.40
2017-10-28T17:41:54.583Z,6.25
2017-10-28T17:44:22.714Z,6.43
2017-10-28T17:46:50.866Z,8.00
2017-10-28T17:49:19.763Z,6.60
2017-10-28T17:51:48.653Z,4.93
2017-10-28T17:54:16.774Z,6.72
2017-10-28T17:56:44.914Z,7.37
2017-10-28T17:59:13.035Z,4.55
2017-10-28T18:01:41.230Z,3.30
2017-10-28T18:04:09.349Z,6.95
2017-10-28T18:06:37.526Z,4.70
2017-10-28T18:09:05.764Z,6.20
2017-10-28T18:11:34.654Z,8.35
2017-10-28T18:14:02.870Z,6.20
2017-10-28T18:16:30.968Z,8.20
2017-10-28T18:18:59.890Z,7.87
2017-10-28T18:21:28.067Z,3.43
2017-10-28T18:23:56.241Z,5.18
2017-10-28T18:26:24.381Z,4.18
2017-10-28T18:28:53.306Z,5.60
2017-10-28T18:31:21.648Z,3.87
2017-10-28T18:33:49.802Z,3.53
2017-10-28T18:36:18.025Z,6.40
2017-10-28T18:38:46.208Z,3.85
2017-10-28T18:41:14.368Z,5.07
2017-10-28T18:43:42.543Z,3.97
2017-10-28T18:46:10.635Z,4.50
2017-10-28T18:48:38.755Z,4.87
2017-10-28T18:51:07.644Z,5.30
2017-10-28T18:53:36.581Z,7.35
2017-10-28T18:56:04.705Z,3.85
2017-10-28T18:58:33.603Z,3.35
2017-10-28T19:01:02.515Z,8.17
2017-10-28T19:03:31.416Z,3.97
2017-10-28T19:05:59.572Z,6.50
2017-10-28T19:08:28.569Z,7.18
2017-10-28T19:10:57.471Z,5.20
2017-10-28T19:13:25.839Z,5.65
2017-10-28T19:15:53.966Z,12.10
2017-10-28T19:18:22.901Z,3.75
2017-10-28T19:20:51.761Z,3.15
2017-10-28T19:23:20.676Z,3.25
2017-10-28T19:25:48.855Z,2.72
2017-10-28T19:28:17.711Z,2.80
2017-10-28T19:30:46.939Z,1.67
2017-10-28T19:33:15.934Z,5.45
2017-10-28T19:35:44.086Z,6.20
2017-10-28T19:38:12.958Z,3.55
2017-10-28T19:40:41.858Z,2.78
2017-10-28T19:43:10.057Z,4.00
2017-10-28T19:45:38.948Z,3.30
2017-10-28T19:48:07.121Z,4.93
2017-10-28T19:50:36.003Z,3.83
2017-10-28T19:53:04.127Z,5.55
2017-10-28T19:55:33.077Z,3.50
2017-10-28T19:58:01.199Z,4.25
2017-10-28T20:00:29.393Z,1.92
2017-10-28T20:02:57.517Z,3.17
2017-10-28T20:05:25.755Z,4.53
2017-10-28T20:07:53.906Z,4.20
2017-10-28T20:10:22.007Z,3.20
2017-10-28T20:12:50.144Z,2.47
2017-10-28T20:15:18.247Z,6.65
2017-10-28T20:17:46.555Z,4.80
2017-10-28T20:20:14.826Z,2.58
2017-10-28T20:22:42.976Z,5.95
2017-10-28T20:25:11.096Z,6.03
2017-10-28T20:27:39.226Z,9.05
2017-10-28T20:30:07.355Z,2.67
2017-10-28T20:32:36.300Z,2.97
2017-10-28T20:35:04.458Z,2.72
2017-10-28T20:37:32.607Z,3.00
2017-10-28T20:40:01.490Z,3.28
2017-10-28T20:42:30.370Z,4.97
2017-10-28T20:44:58.521Z,3.65
2017-10-28T20:47:26.635Z,3.78
2017-10-28T20:49:55.746Z,5.20
2017-10-28T20:52:23.878Z,5.00
2017-10-28T20:54:52.913Z,4.53
2017-10-28T20:57:21.014Z,3.97
2017-10-28T20:59:49.131Z,7.65
2017-10-28T21:02:17.275Z,4.73
2017-10-28T21:04:45.408Z,4.70
2017-10-28T21:07:13.531Z,3.60
2017-10-28T21:09:41.699Z,3.10
2017-10-28T21:12:09.813Z,4.95
2017-10-28T21:14:38.029Z,4.00
2017-10-28T21:17:06.183Z,6.12
2017-10-28T21:19:34.340Z,3.55
2017-10-28T21:22:02.461Z,5.43
2017-10-28T21:24:30.578Z,6.47
2017-10-28T21:26:59.265Z,4.35
2017-10-28T21:29:27.577Z,5.22
2017-10-28T21:31:55.709Z,4.45
2017-10-28T21:34:23.824Z,3.92
2017-10-28T21:36:52.059Z,7.67
2017-10-28T21:39:20.159Z,5.60
2017-10-28T21:41:48.304Z,4.05
2017-10-28T21:44:16.457Z,2.55
2017-10-28T21:46:44.616Z,3.25
2017-10-28T21:49:12.801Z,2.60
2017-10-28T21:51:41.684Z,3.47
2017-10-28T21:54:09.826Z,4.03
2017-10-28T21:56:38.022Z,4.15
2017-10-28T21:59:06.909Z,7.18
2017-10-28T22:01:35.809Z,5.23
2017-10-28T22:04:04.747Z,3.95
2017-10-28T22:06:32.976Z,4.60
2017-10-28T22:09:01.901Z,4.80
2017-10-28T22:11:30.025Z,3.90
2017-10-28T22:13:58.174Z,3.17
2017-10-28T22:16:27.083Z,7.20
2017-10-28T22:18:55.207Z,2.35
2017-10-28T22:21:23.488Z,3.77
2017-10-28T22:23:51.749Z,2.87
2017-10-28T22:26:19.896Z,6.32
2017-10-28T22:28:48.811Z,6.68
2017-10-28T22:31:16.952Z,5.07
2017-10-28T22:33:45.162Z,11.93
2017-10-28T22:36:13.408Z,3.35
2017-10-28T22:38:42.528Z,4.18
2017-10-28T22:41:10.647Z,5.68
2017-10-28T22:43:38.849Z,6.82
2017-10-28T22:46:07.037Z,4.73
2017-10-28T22:48:35.322Z,7.15
2017-10-28T22:51:04.195Z,7.10
2017-10-28T22:53:32.323Z,5.70
2017-10-28T22:56:00.762Z,6.47
2017-10-28T22:58:29.678Z,6.47
2017-10-28T23:00:57.890Z,5.73
2017-10-28T23:03:26.006Z,5.68
2017-10-28T23:05:54.127Z,4.82
2017-10-28T23:08:23.064Z,5.35
2017-10-28T23:10:52.169Z,7.57
2017-10-28T23:13:20.541Z,6.60
2017-10-28T23:15:49.666Z,9.33
2017-10-28T23:18:18.592Z,4.80
2017-10-28T23:20:47.489Z,8.13
2017-10-28T23:23:16.404Z,6.00
2017-10-28T23:25:44.573Z,6.90
2017-10-28T23:28:12.743Z,6.12
2017-10-28T23:30:41.623Z,6.60
2017-10-28T23:33:09.807Z,6.45
2017-10-28T23:35:38.724Z,5.57
2017-10-28T23:38:06.874Z,5.15
2017-10-28T23:40:36.065Z,5.43
2017-10-28T23:43:04.959Z,6.55
2017-10-28T23:45:33.053Z,6.30
2017-10-28T23:48:01.245Z,4.75
2017-10-28T23:50:29.477Z,7.47
2017-10-28T23:52:57.753Z,7.18
2017-10-28T23:55:26.627Z,9.65
2017-10-28T23:57:54.916Z,9.23
